createdAt,value
2024-03-09T00:00:00.418Z,882.2
2024-03-09T00:01:00.371Z,882.2
2024-03-09T00:02:00.504Z,882.1
2024-03-09T00:03:00.389Z,882.1
2024-03-09T00:04:00.413Z,882.2
2024-03-09T00:05:00.621Z,882.1
2024-03-09T00:06:00.392Z,882.1
2024-03-09T00:07:00.438Z,882.1
2024-03-09T00:08:00.522Z,882.1
2024-03-09T00:09:00.566Z,882.1
2024-03-09T00:10:00.387Z,882.1
2024-03-09T00:11:00.422Z,882.1
2024-03-09T00:12:00.468Z,882.1
2024-03-09T00:13:00.407Z,882.1
2024-03-09T00:14:00.468Z,882.1
2024-03-09T00:15:00.435Z,882.1
2024-03-09T00:16:00.375Z,882.1
2024-03-09T00:17:00.534Z,882.1
2024-03-09T00:18:00.539Z,882.1
2024-03-09T00:19:00.440Z,882.1
2024-03-09T00:20:00.594Z,882.1
2024-03-09T00:21:00.548Z,882.1
2024-03-09T00:22:00.465Z,882.1
2024-03-09T00:23:02.164Z,882.1
2024-03-09T00:24:00.511Z,882.1
2024-03-09T00:25:00.447Z,882.1
2024-03-09T00:26:00.508Z,882.0
2024-03-09T00:27:00.399Z,882.0
2024-03-09T00:28:00.409Z,882.0
2024-03-09T00:29:00.486Z,882.0
2024-03-09T00:30:00.441Z,882.0
2024-03-09T00:31:00.389Z,882.0
2024-03-09T00:32:00.552Z,881.9
2024-03-09T00:33:00.608Z,881.9
2024-03-09T00:34:00.413Z,882.0
2024-03-09T00:35:00.566Z,882.0
2024-03-09T00:36:00.408Z,881.9
2024-03-09T00:37:00.436Z,881.9
2024-03-09T00:38:01.034Z,881.9
2024-03-09T00:39:00.406Z,881.9
2024-03-09T00:40:00.449Z,881.9
2024-03-09T00:41:00.474Z,881.9
2024-03-09T00:42:00.498Z,881.9
2024-03-09T00:43:00.563Z,881.9
2024-03-09T00:44:00.470Z,881.9
2024-03-09T00:45:00.427Z,881.9
2024-03-09T00:46:00.384Z,881.9
2024-03-09T00:47:00.467Z,881.9
2024-03-09T00:48:00.553Z,881.9
2024-03-09T00:49:00.393Z,881.9
2024-03-09T00:50:00.552Z,881.9
2024-03-09T00:51:00.446Z,881.9
2024-03-09T00:52:00.407Z,881.9
2024-03-09T00:53:00.414Z,882.0
2024-03-09T00:54:00.509Z,881.9
2024-03-09T00:55:00.385Z,881.9
2024-03-09T00:56:00.507Z,882.0
2024-03-09T00:57:00.431Z,882.0
2024-03-09T00:58:00.388Z,882.0
2024-03-09T00:59:02.997Z,882.0
2024-03-09T01:00:00.366Z,882.0
2024-03-09T01:01:00.438Z,882.0
2024-03-09T01:02:00.630Z,882.0
2024-03-09T01:03:00.399Z,882.0
2024-03-09T01:04:00.419Z,881.9
2024-03-09T01:05:00.546Z,882.0
2024-03-09T01:06:00.394Z,882.0
2024-03-09T01:07:00.420Z,882.0
2024-03-09T01:08:00.425Z,882.0
2024-03-09T01:09:00.419Z,882.0
2024-03-09T01:10:00.417Z,882.0
2024-03-09T01:11:00.600Z,882.1
2024-03-09T01:12:00.515Z,882.0
2024-03-09T01:13:00.515Z,882.0
2024-03-09T01:14:00.481Z,882.0
2024-03-09T01:15:00.408Z,882.1
2024-03-09T01:16:00.489Z,882.1
2024-03-09T01:17:00.561Z,882.1
2024-03-09T01:18:00.461Z,882.1
2024-03-09T01:19:00.422Z,882.1
2024-03-09T01:20:00.490Z,882.1
2024-03-09T01:21:00.437Z,882.1
2024-03-09T01:22:00.397Z,882.2
2024-03-09T01:23:00.454Z,882.2
2024-03-09T01:24:00.397Z,882.2
2024-03-09T01:25:00.410Z,882.2
2024-03-09T01:26:00.649Z,882.2
2024-03-09T01:27:00.414Z,882.2
2024-03-09T01:28:00.386Z,882.2
2024-03-09T01:29:00.527Z,882.2
2024-03-09T01:30:00.656Z,882.2
2024-03-09T01:31:00.377Z,882.2
2024-03-09T01:32:00.482Z,882.2
2024-03-09T01:33:00.581Z,882.2
2024-03-09T01:34:00.382Z,882.2
2024-03-09T01:35:00.562Z,882.3
2024-03-09T01:36:00.373Z,882.3
2024-03-09T01:37:00.388Z,882.2
2024-03-09T01:38:00.424Z,882.2
2024-03-09T01:39:00.439Z,882.3
2024-03-09T01:40:00.368Z,882.3
2024-03-09T01:41:00.536Z,882.2
2024-03-09T01:42:00.416Z,882.3
2024-03-09T01:43:00.407Z,882.3
2024-03-09T01:44:00.405Z,882.2
2024-03-09T01:45:00.420Z,882.2
2024-03-09T01:46:00.400Z,882.2
2024-03-09T01:47:00.434Z,882.3
2024-03-09T01:48:00.410Z,882.3
2024-03-09T01:49:00.387Z,882.3
2024-03-09T01:50:00.583Z,882.3
2024-03-09T01:51:00.415Z,882.3
2024-03-09T01:52:00.457Z,882.3
2024-03-09T01:53:00.454Z,882.3
2024-03-09T01:54:00.417Z,882.3
2024-03-09T01:55:00.406Z,882.3
2024-03-09T01:56:00.638Z,882.3
2024-03-09T01:57:00.430Z,882.3
2024-03-09T01:58:00.513Z,882.3
2024-03-09T01:59:00.526Z,882.3
2024-03-09T02:00:00.441Z,882.3
2024-03-09T02:01:00.471Z,882.3
2024-03-09T02:02:00.572Z,882.4
2024-03-09T02:03:00.383Z,882.4
2024-03-09T02:04:00.516Z,882.4
2024-03-09T02:05:00.416Z,882.3
2024-03-09T02:06:00.374Z,882.4
2024-03-09T02:07:00.362Z,882.4
2024-03-09T02:08:00.438Z,882.3
2024-03-09T02:09:00.393Z,882.3
2024-03-09T02:10:00.451Z,882.3
2024-03-09T02:11:00.613Z,882.4
2024-03-09T02:12:00.455Z,882.4
2024-03-09T02:13:00.388Z,882.4
2024-03-09T02:14:00.434Z,882.5
2024-03-09T02:15:00.400Z,882.5
2024-03-09T02:16:00.436Z,882.5
2024-03-09T02:17:00.443Z,882.5
2024-03-09T02:18:00.432Z,882.5
2024-03-09T02:19:00.405Z,882.5
2024-03-09T02:20:00.462Z,882.5
2024-03-09T02:21:00.381Z,882.5
2024-03-09T02:22:00.477Z,882.5
2024-03-09T02:23:00.430Z,882.5
2024-03-09T02:24:00.379Z,882.5
2024-03-09T02:25:00.371Z,882.5
2024-03-09T02:26:00.466Z,882.5
2024-03-09T02:27:00.420Z,882.5
2024-03-09T02:28:01.812Z,882.5
2024-03-09T02:29:00.540Z,882.5
2024-03-09T02:30:00.370Z,882.5
2024-03-09T02:31:00.377Z,882.5
2024-03-09T02:32:00.439Z,882.5
2024-03-09T02:33:00.430Z,882.5
2024-03-09T02:34:00.372Z,882.5
2024-03-09T02:35:00.524Z,882.5
2024-03-09T02:36:00.363Z,882.5
2024-03-09T02:37:00.519Z,882.5
2024-03-09T02:38:00.439Z,882.5
2024-03-09T02:39:00.357Z,882.5
2024-03-09T02:40:00.371Z,882.4
2024-03-09T02:41:00.589Z,882.5
2024-03-09T02:42:00.755Z,882.5
2024-03-09T02:43:00.532Z,882.5
2024-03-09T02:44:00.506Z,882.5
2024-03-09T02:45:00.360Z,882.4
2024-03-09T02:46:00.420Z,882.5
2024-03-09T02:47:00.443Z,882.5
2024-03-09T02:48:00.419Z,882.4
2024-03-09T02:49:00.491Z,882.5
2024-03-09T02:50:00.544Z,882.5
2024-03-09T02:51:00.472Z,882.5
2024-03-09T02:52:00.477Z,882.5
2024-03-09T02:53:00.404Z,882.5
2024-03-09T02:54:00.388Z,882.5
2024-03-09T02:55:00.450Z,882.5
2024-03-09T02:56:00.463Z,882.5
2024-03-09T02:57:00.376Z,882.6
2024-03-09T02:58:00.392Z,882.6
2024-03-09T02:59:00.419Z,882.6
2024-03-09T03:00:00.389Z,882.5
2024-03-09T03:01:00.607Z,882.5
2024-03-09T03:02:00.456Z,882.5
2024-03-09T03:03:00.389Z,882.5
2024-03-09T03:04:00.394Z,882.5
2024-03-09T03:05:00.411Z,882.5
2024-03-09T03:06:00.373Z,882.5
2024-03-09T03:07:00.435Z,882.5
2024-03-09T03:08:00.429Z,882.5
2024-03-09T03:09:00.451Z,882.5
2024-03-09T03:10:00.388Z,882.5
2024-03-09T03:11:00.550Z,882.5
2024-03-09T03:12:00.451Z,882.5
2024-03-09T03:13:00.438Z,882.5
2024-03-09T03:14:00.436Z,882.6
2024-03-09T03:15:00.449Z,882.5
2024-03-09T03:16:00.421Z,882.5
2024-03-09T03:17:00.514Z,882.5
2024-03-09T03:18:00.417Z,882.5
2024-03-09T03:19:00.421Z,882.5
2024-03-09T03:20:00.466Z,882.5
2024-03-09T03:21:00.444Z,882.5
2024-03-09T03:22:00.372Z,882.5
2024-03-09T03:23:00.532Z,882.5
2024-03-09T03:24:00.411Z,882.5
2024-03-09T03:25:00.503Z,882.5
2024-03-09T03:26:00.473Z,882.5
2024-03-09T03:27:00.468Z,882.5
2024-03-09T03:28:00.417Z,882.5
2024-03-09T03:29:00.479Z,882.5
2024-03-09T03:30:00.515Z,882.5
2024-03-09T03:31:00.509Z,882.5
2024-03-09T03:32:00.596Z,882.5
2024-03-09T03:33:00.516Z,882.5
2024-03-09T03:34:00.359Z,882.5
2024-03-09T03:35:00.413Z,882.4
2024-03-09T03:36:00.372Z,882.4
2024-03-09T03:37:00.372Z,882.5
2024-03-09T03:38:00.541Z,882.4
2024-03-09T03:39:00.501Z,882.5
2024-03-09T03:40:00.434Z,882.5
2024-03-09T03:41:00.464Z,882.4
2024-03-09T03:42:00.481Z,882.4
2024-03-09T03:43:00.430Z,882.5
2024-03-09T03:44:00.511Z,882.5
2024-03-09T03:45:00.397Z,882.5
2024-03-09T03:46:00.438Z,882.5
2024-03-09T03:47:00.546Z,882.5
2024-03-09T03:48:00.442Z,882.5
2024-03-09T03:49:00.375Z,882.5
2024-03-09T03:50:00.425Z,882.5
2024-03-09T03:51:00.444Z,882.5
2024-03-09T03:52:00.509Z,882.5
2024-03-09T03:53:00.608Z,882.5
2024-03-09T03:54:00.393Z,882.5
2024-03-09T03:55:00.397Z,882.5
2024-03-09T03:56:00.455Z,882.6
2024-03-09T03:57:00.364Z,882.5
2024-03-09T03:58:00.394Z,882.6
2024-03-09T03:59:00.482Z,882.5
2024-03-09T04:00:00.506Z,882.5
2024-03-09T04:01:00.439Z,882.5
2024-03-09T04:02:00.433Z,882.6
2024-03-09T04:03:00.420Z,882.5
2024-03-09T04:04:00.394Z,882.6
2024-03-09T04:05:00.588Z,882.6
2024-03-09T04:06:00.403Z,882.6
2024-03-09T04:07:00.380Z,882.6
2024-03-09T04:08:00.569Z,882.6
2024-03-09T04:09:00.395Z,882.6
2024-03-09T04:10:00.396Z,882.6
2024-03-09T04:11:00.591Z,882.6
2024-03-09T04:12:00.469Z,882.7
2024-03-09T04:13:00.521Z,882.7
2024-03-09T04:14:00.502Z,882.7
2024-03-09T04:15:00.386Z,882.7
2024-03-09T04:16:00.367Z,882.6
2024-03-09T04:17:00.621Z,882.7
2024-03-09T04:18:00.416Z,882.6
2024-03-09T04:19:00.366Z,882.7
2024-03-09T04:20:00.533Z,882.7
2024-03-09T04:21:00.456Z,882.7
2024-03-09T04:22:00.416Z,882.7
2024-03-09T04:23:00.579Z,882.7
2024-03-09T04:24:00.360Z,882.7
2024-03-09T04:25:00.384Z,882.7
2024-03-09T04:26:00.485Z,882.7
2024-03-09T04:27:00.433Z,882.7
2024-03-09T04:28:00.372Z,882.7
2024-03-09T04:29:00.489Z,882.7
2024-03-09T04:30:00.430Z,882.8
2024-03-09T04:31:00.386Z,882.7
2024-03-09T04:32:00.399Z,882.7
2024-03-09T04:33:00.515Z,882.8
2024-03-09T04:34:00.391Z,882.8
2024-03-09T04:35:00.462Z,882.8
2024-03-09T04:36:00.420Z,882.8
2024-03-09T04:37:00.356Z,882.8
2024-03-09T04:38:00.395Z,882.8
2024-03-09T04:39:00.425Z,882.8
2024-03-09T04:40:00.561Z,882.8
2024-03-09T04:41:00.431Z,882.8
2024-03-09T04:42:00.474Z,882.8
2024-03-09T04:43:00.382Z,882.8
2024-03-09T04:44:00.448Z,882.8
2024-03-09T04:45:00.385Z,882.8
2024-03-09T04:46:00.448Z,882.9
2024-03-09T04:47:00.490Z,882.8
2024-03-09T04:48:00.683Z,882.8
2024-03-09T04:49:00.404Z,882.8
2024-03-09T04:50:00.547Z,882.8
2024-03-09T04:51:00.441Z,882.8
2024-03-09T04:52:00.361Z,882.9
2024-03-09T04:53:00.488Z,882.9
2024-03-09T04:54:00.461Z,882.9
2024-03-09T04:55:00.400Z,882.9
2024-03-09T04:56:02.359Z,882.8
2024-03-09T04:57:00.577Z,882.8
2024-03-09T04:58:00.375Z,882.9
2024-03-09T04:59:00.543Z,882.9
2024-03-09T05:00:00.394Z,882.9
2024-03-09T05:01:00.435Z,882.9
2024-03-09T05:02:00.435Z,882.9
2024-03-09T05:03:00.451Z,882.9
2024-03-09T05:04:00.365Z,882.9
2024-03-09T05:05:00.429Z,882.9
2024-03-09T05:06:00.375Z,883.0
2024-03-09T05:07:00.383Z,883.0
2024-03-09T05:08:00.374Z,883.0
2024-03-09T05:09:00.425Z,883.0
2024-03-09T05:10:00.464Z,882.9
2024-03-09T05:11:00.543Z,882.9
2024-03-09T05:12:00.431Z,883.0
2024-03-09T05:13:00.388Z,883.0
2024-03-09T05:14:00.501Z,883.0
2024-03-09T05:15:00.448Z,883.0
2024-03-09T05:16:00.385Z,883.0
2024-03-09T05:17:00.425Z,883.0
2024-03-09T05:18:00.488Z,883.0
2024-03-09T05:19:00.413Z,883.0
2024-03-09T05:20:00.489Z,883.1
2024-03-09T05:21:00.542Z,883.1
2024-03-09T05:22:00.366Z,883.1
2024-03-09T05:23:00.420Z,883.1
2024-03-09T05:24:00.384Z,883.1
2024-03-09T05:25:00.408Z,883.1
2024-03-09T05:26:00.474Z,883.1
2024-03-09T05:27:00.447Z,883.1
2024-03-09T05:28:00.395Z,883.1
2024-03-09T05:29:00.457Z,883.1
2024-03-09T05:30:00.513Z,883.2
2024-03-09T05:31:00.444Z,883.1
2024-03-09T05:32:00.394Z,883.2
2024-03-09T05:33:00.463Z,883.2
2024-03-09T05:34:00.390Z,883.2
2024-03-09T05:35:00.568Z,883.2
2024-03-09T05:36:00.567Z,883.2
2024-03-09T05:37:00.384Z,883.2
2024-03-09T05:38:00.705Z,883.2
2024-03-09T05:39:00.860Z,883.2
2024-03-09T05:40:00.416Z,883.2
2024-03-09T05:41:00.482Z,883.2
2024-03-09T05:42:00.455Z,883.2
2024-03-09T05:43:00.388Z,883.2
2024-03-09T05:44:00.500Z,883.2
2024-03-09T05:45:00.465Z,883.2
2024-03-09T05:46:00.374Z,883.2
2024-03-09T05:47:00.408Z,883.2
2024-03-09T05:48:00.841Z,883.2
2024-03-09T05:49:00.392Z,883.2
2024-03-09T05:50:00.561Z,883.2
2024-03-09T05:51:00.397Z,883.2
2024-03-09T05:52:00.475Z,883.3
2024-03-09T05:53:00.452Z,883.3
2024-03-09T05:54:00.415Z,883.3
2024-03-09T05:55:00.372Z,883.3
2024-03-09T05:56:00.418Z,883.3
2024-03-09T05:57:00.358Z,883.3
2024-03-09T05:58:00.448Z,883.3
2024-03-09T05:59:00.484Z,883.3
2024-03-09T06:00:00.365Z,883.3
2024-03-09T06:01:00.424Z,883.3
2024-03-09T06:02:00.429Z,883.3
2024-03-09T06:03:00.463Z,883.3
2024-03-09T06:04:00.582Z,883.2
2024-03-09T06:05:00.460Z,883.2
2024-03-09T06:06:00.355Z,883.2
2024-03-09T06:07:00.433Z,883.2
2024-03-09T06:08:00.622Z,883.3
2024-03-09T06:09:00.390Z,883.3
2024-03-09T06:10:00.397Z,883.3
2024-03-09T06:11:01.843Z,883.3
2024-03-09T06:12:00.537Z,883.3
2024-03-09T06:13:00.440Z,883.3
2024-03-09T06:14:00.426Z,883.3
2024-03-09T06:15:00.394Z,883.3
2024-03-09T06:16:00.378Z,883.3
2024-03-09T06:17:00.499Z,883.3
2024-03-09T06:18:00.680Z,883.4
2024-03-09T06:19:00.445Z,883.4
2024-03-09T06:20:00.526Z,883.3
2024-03-09T06:21:00.435Z,883.3
2024-03-09T06:22:00.460Z,883.3
2024-03-09T06:23:00.429Z,883.3
2024-03-09T06:24:00.406Z,883.3
2024-03-09T06:25:00.620Z,883.3
2024-03-09T06:26:00.442Z,883.3
2024-03-09T06:27:00.363Z,883.3
2024-03-09T06:28:00.383Z,883.3
2024-03-09T06:29:00.404Z,883.3
2024-03-09T06:30:00.471Z,883.3
2024-03-09T06:31:00.382Z,883.3
2024-03-09T06:32:00.419Z,883.3
2024-03-09T06:33:01.169Z,883.3
2024-03-09T06:34:00.374Z,883.3
2024-03-09T06:35:00.417Z,883.3
2024-03-09T06:36:00.436Z,883.3
2024-03-09T06:37:00.437Z,883.3
2024-03-09T06:38:01.097Z,883.3
2024-03-09T06:39:00.445Z,883.3
2024-03-09T06:40:00.380Z,883.3
2024-03-09T06:41:00.525Z,883.3
2024-03-09T06:42:00.443Z,883.3
2024-03-09T06:43:00.484Z,883.3
2024-03-09T06:44:00.396Z,883.3
2024-03-09T06:45:00.356Z,883.3
2024-03-09T06:46:00.447Z,883.3
2024-03-09T06:47:00.512Z,883.4
2024-03-09T06:48:00.618Z,883.3
2024-03-09T06:49:00.424Z,883.3
2024-03-09T06:50:00.423Z,883.3
2024-03-09T06:51:00.428Z,883.3
2024-03-09T06:52:00.358Z,883.3
2024-03-09T06:53:00.505Z,883.3
2024-03-09T06:54:00.458Z,883.3
2024-03-09T06:55:00.394Z,883.3
2024-03-09T06:56:00.467Z,883.2
2024-03-09T06:57:00.440Z,883.2
2024-03-09T06:58:00.398Z,883.2
2024-03-09T06:59:00.453Z,883.2
2024-03-09T07:00:00.406Z,883.2
2024-03-09T07:01:00.448Z,883.2
2024-03-09T07:02:00.461Z,883.2
2024-03-09T07:03:00.692Z,883.2
2024-03-09T07:04:00.450Z,883.2
2024-03-09T07:05:00.464Z,883.2
2024-03-09T07:06:00.383Z,883.2
2024-03-09T07:07:00.381Z,883.2
2024-03-09T07:08:00.485Z,883.2
2024-03-09T07:09:00.469Z,883.2
2024-03-09T07:10:00.397Z,883.1
2024-03-09T07:11:03.750Z,883.2
2024-03-09T07:12:00.561Z,883.1
2024-03-09T07:13:00.379Z,883.2
2024-03-09T07:14:00.458Z,883.2
2024-03-09T07:15:00.385Z,883.2
2024-03-09T07:16:00.472Z,883.2
2024-03-09T07:17:00.534Z,883.1
2024-03-09T07:18:00.531Z,883.2
2024-03-09T07:19:00.382Z,883.2
2024-03-09T07:20:00.408Z,883.2
2024-03-09T07:21:00.388Z,883.1
2024-03-09T07:22:00.365Z,883.2
2024-03-09T07:23:00.478Z,883.1
2024-03-09T07:24:00.399Z,883.1
2024-03-09T07:25:00.579Z,883.0
2024-03-09T07:26:00.495Z,883.1
2024-03-09T07:27:02.061Z,883.1
2024-03-09T07:28:00.394Z,883.1
2024-03-09T07:29:00.463Z,883.1
2024-03-09T07:30:00.371Z,883.1
2024-03-09T07:31:00.379Z,883.1
2024-03-09T07:32:00.473Z,883.1
2024-03-09T07:33:00.373Z,883.0
2024-03-09T07:34:00.388Z,883.1
2024-03-09T07:35:00.395Z,883.1
2024-03-09T07:36:00.386Z,883.1
2024-03-09T07:37:00.356Z,883.1
2024-03-09T07:38:01.690Z,883.0
2024-03-09T07:39:00.358Z,883.0
2024-03-09T07:40:00.435Z,883.0
2024-03-09T07:41:00.427Z,883.0
2024-03-09T07:42:00.422Z,883.0
2024-03-09T07:43:00.364Z,883.0
2024-03-09T07:44:00.422Z,883.0
2024-03-09T07:45:00.428Z,883.0
2024-03-09T07:46:00.487Z,883.0
2024-03-09T07:47:00.548Z,883.0
2024-03-09T07:48:01.137Z,883.0
2024-03-09T07:49:00.374Z,883.0
2024-03-09T07:50:00.511Z,883.0
2024-03-09T07:51:03.705Z,882.9
2024-03-09T07:52:00.472Z,883.0
2024-03-09T07:53:00.448Z,883.0
2024-03-09T07:54:00.439Z,883.0
2024-03-09T07:55:00.529Z,882.9
2024-03-09T07:56:00.527Z,882.9
2024-03-09T07:57:00.380Z,882.9
2024-03-09T07:58:09.493Z,882.9
2024-03-09T07:59:00.387Z,882.9
2024-03-09T08:00:00.368Z,882.8
2024-03-09T08:01:00.487Z,882.8
2024-03-09T08:02:00.515Z,882.8
2024-03-09T08:03:00.416Z,882.8
2024-03-09T08:04:00.380Z,882.8
2024-03-09T08:05:00.403Z,882.8
2024-03-09T08:06:00.401Z,882.8
2024-03-09T08:07:02.891Z,882.8
2024-03-09T08:08:00.398Z,882.8
2024-03-09T08:09:00.394Z,882.8
2024-03-09T08:10:00.444Z,882.8
2024-03-09T08:11:00.405Z,882.8
2024-03-09T08:12:00.392Z,882.8
2024-03-09T08:13:00.463Z,882.8
2024-03-09T08:14:00.428Z,882.8
2024-03-09T08:15:00.389Z,882.8
2024-03-09T08:16:00.383Z,882.8
2024-03-09T08:17:00.454Z,882.8
2024-03-09T08:18:00.607Z,882.7
2024-03-09T08:19:00.525Z,882.8
2024-03-09T08:20:00.501Z,882.8
2024-03-09T08:21:00.365Z,882.8
2024-03-09T08:22:00.356Z,882.7
2024-03-09T08:23:00.487Z,882.7
2024-03-09T08:24:00.436Z,882.7
2024-03-09T08:25:00.566Z,882.7
2024-03-09T08:26:00.408Z,882.7
2024-03-09T08:27:00.418Z,882.7
2024-03-09T08:28:00.381Z,882.6
2024-03-09T08:29:00.446Z,882.7
2024-03-09T08:30:00.391Z,882.6
2024-03-09T08:31:00.465Z,882.7
2024-03-09T08:32:00.418Z,882.7
2024-03-09T08:33:01.244Z,882.7
2024-03-09T08:34:00.402Z,882.7
2024-03-09T08:35:00.508Z,882.7
2024-03-09T08:36:00.382Z,882.7
2024-03-09T08:37:00.443Z,882.6
2024-03-09T08:38:00.598Z,882.6
2024-03-09T08:39:00.372Z,882.6
2024-03-09T08:40:00.449Z,882.6
2024-03-09T08:41:00.490Z,882.6
2024-03-09T08:42:00.524Z,882.6
2024-03-09T08:43:00.504Z,882.5
2024-03-09T08:44:00.504Z,882.5
2024-03-09T08:45:00.526Z,882.5
2024-03-09T08:46:00.394Z,882.5
2024-03-09T08:47:00.435Z,882.4
2024-03-09T08:48:00.513Z,882.4
2024-03-09T08:49:00.390Z,882.4
2024-03-09T08:50:00.420Z,882.4
2024-03-09T08:51:00.414Z,882.4
2024-03-09T08:52:00.389Z,882.5
2024-03-09T08:53:00.603Z,882.5
2024-03-09T08:54:00.466Z,882.5
2024-03-09T08:55:00.472Z,882.4
2024-03-09T08:56:00.411Z,882.4
2024-03-09T08:57:00.358Z,882.4
2024-03-09T08:58:00.382Z,882.4
2024-03-09T08:59:00.468Z,882.4
2024-03-09T09:00:00.493Z,882.4
2024-03-09T09:01:00.413Z,882.4
2024-03-09T09:02:00.448Z,882.4
2024-03-09T09:03:00.395Z,882.4
2024-03-09T09:04:00.385Z,882.4
2024-03-09T09:05:00.589Z,882.4
2024-03-09T09:06:00.451Z,882.4
2024-03-09T09:07:00.373Z,882.4
2024-03-09T09:08:01.034Z,882.3
2024-03-09T09:09:00.394Z,882.3
2024-03-09T09:10:00.422Z,882.4
2024-03-09T09:11:00.550Z,882.4
2024-03-09T09:12:00.486Z,882.3
2024-03-09T09:13:00.403Z,882.3
2024-03-09T09:14:00.485Z,882.3
2024-03-09T09:15:00.411Z,882.3
2024-03-09T09:16:00.391Z,882.3
2024-03-09T09:17:00.444Z,882.3
2024-03-09T09:18:00.505Z,882.2
2024-03-09T09:19:00.561Z,882.2
2024-03-09T09:20:03.908Z,882.1
2024-03-09T09:21:00.396Z,882.1
2024-03-09T09:22:00.398Z,882.1
2024-03-09T09:23:00.491Z,882.1
2024-03-09T09:24:00.383Z,882.1
2024-03-09T09:25:00.475Z,882.0
2024-03-09T09:26:00.649Z,882.0
2024-03-09T09:27:00.403Z,881.9
2024-03-09T09:28:00.390Z,881.9
2024-03-09T09:29:00.452Z,881.9
2024-03-09T09:30:00.482Z,881.9
2024-03-09T09:31:00.391Z,881.8
2024-03-09T09:32:00.448Z,881.8
2024-03-09T09:33:00.665Z,881.7
2024-03-09T09:34:00.375Z,881.7
2024-03-09T09:35:00.439Z,881.7
2024-03-09T09:36:00.525Z,881.7
2024-03-09T09:37:00.379Z,881.6
2024-03-09T09:38:00.738Z,881.5
2024-03-09T09:39:00.398Z,881.6
2024-03-09T09:40:00.397Z,881.6
2024-03-09T09:41:00.603Z,881.6
2024-03-09T09:42:00.548Z,881.5
2024-03-09T09:43:00.376Z,881.5
2024-03-09T09:44:00.410Z,881.5
2024-03-09T09:45:00.634Z,881.5
2024-03-09T09:46:03.578Z,881.5
2024-03-09T09:47:00.493Z,881.4
2024-03-09T09:48:00.476Z,881.4
2024-03-09T09:49:00.401Z,881.4
2024-03-09T09:50:00.512Z,881.3
2024-03-09T09:51:00.372Z,881.3
2024-03-09T09:52:00.485Z,881.3
2024-03-09T09:53:00.561Z,881.4
2024-03-09T09:54:00.383Z,881.3
2024-03-09T09:55:00.659Z,881.3
2024-03-09T09:56:00.542Z,881.3
2024-03-09T09:57:00.408Z,881.3
2024-03-09T09:58:00.454Z,881.3
2024-03-09T09:59:00.516Z,881.3
2024-03-09T10:00:00.685Z,881.3
2024-03-09T10:01:00.398Z,881.3
2024-03-09T10:02:00.404Z,881.3
2024-03-09T10:03:00.379Z,881.3
2024-03-09T10:04:00.457Z,881.3
2024-03-09T10:05:00.424Z,881.3
2024-03-09T10:06:00.379Z,881.3
2024-03-09T10:07:00.399Z,881.3
2024-03-09T10:08:00.658Z,881.3
2024-03-09T10:09:00.457Z,881.2
2024-03-09T10:10:00.430Z,881.3
2024-03-09T10:11:00.644Z,881.3
2024-03-09T10:12:00.690Z,881.2
2024-03-09T10:13:00.367Z,881.2
2024-03-09T10:14:00.391Z,881.2
2024-03-09T10:15:00.451Z,881.2
2024-03-09T10:16:00.370Z,881.2
2024-03-09T10:17:00.385Z,881.2
2024-03-09T10:18:00.520Z,881.2
2024-03-09T10:19:00.460Z,881.1
2024-03-09T10:20:00.521Z,881.1
2024-03-09T10:21:00.530Z,881.1
2024-03-09T10:22:00.385Z,881.1
2024-03-09T10:23:00.429Z,881.1
2024-03-09T10:24:00.372Z,881.1
2024-03-09T10:25:00.458Z,881.1
2024-03-09T10:26:00.390Z,881.1
2024-03-09T10:27:00.444Z,881.2
2024-03-09T10:28:00.378Z,881.1
2024-03-09T10:29:00.422Z,881.1
2024-03-09T10:30:00.598Z,881.1
2024-03-09T10:31:00.387Z,881.1
2024-03-09T10:32:00.488Z,881.1
2024-03-09T10:33:00.407Z,881.2
2024-03-09T10:34:00.386Z,881.1
2024-03-09T10:35:00.442Z,881.2
2024-03-09T10:36:00.419Z,881.1
2024-03-09T10:37:00.376Z,881.1
2024-03-09T10:38:00.443Z,881.1
2024-03-09T10:39:00.398Z,881.1
2024-03-09T10:40:00.506Z,881.1
2024-03-09T10:41:00.465Z,881.1
2024-03-09T10:42:00.362Z,881.1
2024-03-09T10:43:00.375Z,881.1
2024-03-09T10:44:00.470Z,881.1
2024-03-09T10:45:00.400Z,881.1
2024-03-09T10:46:00.425Z,881.1
2024-03-09T10:47:00.407Z,881.1
2024-03-09T10:48:00.433Z,881.1
2024-03-09T10:49:00.395Z,881.1
2024-03-09T10:50:00.491Z,881.1
2024-03-09T10:51:00.368Z,881.1
2024-03-09T10:52:00.458Z,881.0
2024-03-09T10:53:00.410Z,881.0
2024-03-09T10:54:00.438Z,881.1
2024-03-09T10:55:00.447Z,881.0
2024-03-09T10:56:00.392Z,881.1
2024-03-09T10:57:00.389Z,881.0
2024-03-09T10:58:00.442Z,881.0
2024-03-09T10:59:00.395Z,881.1
2024-03-09T11:00:00.456Z,881.0
2024-03-09T11:01:00.410Z,881.0
2024-03-09T11:02:00.535Z,881.0
2024-03-09T11:03:00.400Z,881.0
2024-03-09T11:04:00.509Z,881.0
2024-03-09T11:05:00.451Z,881.0
2024-03-09T11:06:00.415Z,881.0
2024-03-09T11:07:00.386Z,881.0
2024-03-09T11:08:00.497Z,881.0
2024-03-09T11:09:00.385Z,881.1
2024-03-09T11:10:00.488Z,881.1
2024-03-09T11:11:00.538Z,881.1
2024-03-09T11:12:00.415Z,881.1
2024-03-09T11:13:00.379Z,881.1
2024-03-09T11:14:00.467Z,881.1
2024-03-09T11:15:00.456Z,881.1
2024-03-09T11:16:00.391Z,881.0
2024-03-09T11:17:00.579Z,880.8
2024-03-09T11:18:00.474Z,881.1
2024-03-09T11:19:00.364Z,881.1
2024-03-09T11:20:00.483Z,881.0
2024-03-09T11:21:00.804Z,881.0
2024-03-09T11:22:00.391Z,880.9
2024-03-09T11:23:00.600Z,880.9
2024-03-09T11:24:00.397Z,881.0
2024-03-09T11:25:00.394Z,880.9
2024-03-09T11:26:00.540Z,880.9
2024-03-09T11:27:00.388Z,880.9
2024-03-09T11:28:00.359Z,880.9
2024-03-09T11:29:00.511Z,880.9
2024-03-09T11:30:00.368Z,880.9
2024-03-09T11:31:00.418Z,880.9
2024-03-09T11:32:00.705Z,880.9
2024-03-09T11:33:00.431Z,880.9
2024-03-09T11:34:00.359Z,880.9
2024-03-09T11:35:00.496Z,880.9
2024-03-09T11:36:00.369Z,881.0
2024-03-09T11:37:00.557Z,880.9
2024-03-09T11:38:00.409Z,880.9
2024-03-09T11:39:00.391Z,881.0
2024-03-09T11:40:00.418Z,881.0
2024-03-09T11:41:00.454Z,880.9
2024-03-09T11:42:00.441Z,880.9
2024-03-09T11:43:00.415Z,880.9
2024-03-09T11:44:00.432Z,880.9
2024-03-09T11:45:00.439Z,880.9
2024-03-09T11:46:00.459Z,880.9
2024-03-09T11:47:00.484Z,880.9
2024-03-09T11:48:00.572Z,880.9
2024-03-09T11:49:00.452Z,880.9
2024-03-09T11:50:00.569Z,880.9
2024-03-09T11:51:00.405Z,881.0
2024-03-09T11:52:00.412Z,880.9
2024-03-09T11:53:00.547Z,880.9
2024-03-09T11:54:00.384Z,880.9
2024-03-09T11:55:00.517Z,880.9
2024-03-09T11:56:00.411Z,880.9
2024-03-09T11:57:00.362Z,880.9
2024-03-09T11:58:00.384Z,880.9
2024-03-09T11:59:00.456Z,880.9
2024-03-09T12:00:00.402Z,880.9
2024-03-09T12:01:00.422Z,880.9
2024-03-09T12:02:00.474Z,880.9
2024-03-09T12:03:00.407Z,880.9
2024-03-09T12:04:01.365Z,880.9
2024-03-09T12:05:00.452Z,880.9
2024-03-09T12:06:00.361Z,880.9
2024-03-09T12:07:00.388Z,880.9
2024-03-09T12:08:00.480Z,880.9
2024-03-09T12:09:00.390Z,880.9
2024-03-09T12:10:00.422Z,880.9
2024-03-09T12:11:00.453Z,880.9
2024-03-09T12:12:00.555Z,880.9
2024-03-09T12:13:00.392Z,880.9
2024-03-09T12:14:00.598Z,880.9
2024-03-09T12:15:00.413Z,880.9
2024-03-09T12:16:00.367Z,880.9
2024-03-09T12:17:00.384Z,880.9
2024-03-09T12:18:00.391Z,880.8
2024-03-09T12:19:00.366Z,880.8
2024-03-09T12:20:00.530Z,880.8
2024-03-09T12:21:00.358Z,880.8
2024-03-09T12:22:00.396Z,880.8
2024-03-09T12:23:00.418Z,880.8
2024-03-09T12:24:00.475Z,880.8
2024-03-09T12:25:00.371Z,880.8
2024-03-09T12:26:00.524Z,880.8
2024-03-09T12:27:00.438Z,880.8
2024-03-09T12:28:00.404Z,880.8
2024-03-09T12:29:00.422Z,880.8
2024-03-09T12:30:00.442Z,880.8
2024-03-09T12:31:00.472Z,880.8
2024-03-09T12:32:00.462Z,880.8
2024-03-09T12:33:00.465Z,880.8
2024-03-09T12:34:00.498Z,880.8
2024-03-09T12:35:00.647Z,880.8
2024-03-09T12:36:00.455Z,880.9
2024-03-09T12:37:00.459Z,880.8
2024-03-09T12:38:00.415Z,880.8
2024-03-09T12:39:00.360Z,880.8
2024-03-09T12:40:00.402Z,880.8
2024-03-09T12:41:00.408Z,880.8
2024-03-09T12:42:00.436Z,880.8
2024-03-09T12:43:00.381Z,880.8
2024-03-09T12:44:00.382Z,880.8
2024-03-09T12:45:00.426Z,880.8
2024-03-09T12:46:00.390Z,880.8
2024-03-09T12:47:00.485Z,880.8
2024-03-09T12:48:00.502Z,880.8
2024-03-09T12:49:00.362Z,880.8
2024-03-09T12:50:00.567Z,880.9
2024-03-09T12:51:00.393Z,880.9
2024-03-09T12:52:00.411Z,880.9